Green Valley, AZ (85614)

5:08 PM MST on July 27, 2016 (GMT -0700)
Portillo Hills | | Change Station

Elev 2992 ft 31.86 °N, 111.00 °W | Updated 10 minutes ago

Clear
Clear
103.6 °F
Feels Like 107 °F
N
1.7
Wind Variable Wind from WSW

Today
High -- | Low -- °F
--% Chance of Precip.
Yesterday
High -- | Low -- °F
Precip. -- in
Pressure 29.69 in
Visibility 10.0 miles
Clouds Clear
Heat Index 107 °F
Dew Point 63 °F
Humidity 27%
Rainfall 0.00 in
Snow Depth Not available.
5:36 AM 7:23 PM
Last Quarter, 38% visible
METAR KTUS 272353Z 36011G16KT 10SM CLR 41/13 A2986 RMK AO2 LTG DSNT NE AND E SLP053 T04060133 10406 20350 56023
Pressure 29.69 in
Visibility 10.0 miles
Clouds Clear
Heat Index 107 °F
Dew Point 63 °F
Humidity 27%
Rainfall 0.00 in
Snow Depth Not available.
5:36 AM 7:23 PM
Last Quarter, 38% visible
METAR KTUS 272353Z 36011G16KT 10SM CLR 41/13 A2986 RMK AO2 LTG DSNT NE AND E SLP053 T04060133 10406 20350 56023

10-Day Weather Forecast

Almanac

Astronomy

Jul. 27, 2016 Rise Set
Actual Time
Civil Twilight
Nautical Twilight
Astronomical Twilight
Moon
Length of Visible Light
Length of Day
Tomorrow will be .
, % of the Moon is Illuminated

Today's Extremes

State Highs State Lows

Community

WunderPhotos

Upload Photos

1,927,963 photos uploaded!

WunderBlog® & News

Nearby

Air Quality

  Air Quality AQ Index Pollutant
Not available.

Snow Depth

Station Depth Elevation

Earthquake Activity

City Distance Mag. Time & Date
Minimum magnitude displayed is 2.5.

Coastal Water Temperatures

Place Temperature

Stations

Nearby Weather Stations

Station Location Temp. Windchill Dew Point Humidity Wind Precip. Elev Updated Type
                   

Watches & Warnings

There are currently no watches in effect.